Time;durP1;ratioP1;P1;durP2;ratioP2;P2;SDS_P1;SDS_P2;PMS_P1;PMS_P2;Temp;Humidity;BMP_temperature;BMP_pressure;BME280_temperature;BME280_humidity;BME280_pressure;Samples;Min_cycle;Max_cycle;Signal;HPM_P1;HPM_P2
2021/09/23 00:00:51;;;;;;;23.17;4.35;;;;;14.70;101140.00;;;;4948486;28;20138;-74
2021/09/23 00:06:07;;;;;;;15.18;4.25;;;;;14.90;101164.00;;;;4948827;28;20505;-75
2021/09/23 00:08:36;;;;;;;26.88;4.85;;;;;14.70;101152.00;;;;4947466;28;20087;-73
2021/09/23 00:11:07;;;;;;;20.45;4.57;;;;;14.70;101146.00;;;;4947448;28;20066;-73
2021/09/23 00:13:36;;;;;;;24.23;4.82;;;;;14.70;101145.00;;;;4947280;29;20043;-73
2021/09/23 00:16:06;;;;;;;18.25;5.20;;;;;14.60;101162.00;;;;4962153;28;20395;-73
2021/09/23 00:18:36;;;;;;;24.77;5.72;;;;;14.60;101174.00;;;;4948239;28;20449;-74
2021/09/23 00:21:06;;;;;;;23.38;5.22;;;;;14.60;101149.00;;;;4947375;29;20043;-73
2021/09/23 00:23:35;;;;;;;23.13;4.70;;;;;14.50;101154.00;;;;4950219;28;20047;-73
2021/09/23 00:26:05;;;;;;;17.58;4.18;;;;;14.60;101158.00;;;;4968612;28;20051;-74
2021/09/23 00:28:34;;;;;;;5.85;1.52;;;;;14.60;101155.00;;;;4970274;28;20050;-73
2021/09/23 00:31:03;;;;;;;24.48;5.07;;;;;14.50;101177.00;;;;4971388;28;20113;-73
2021/09/23 00:33:33;;;;;;;19.65;4.32;;;;;14.40;101158.00;;;;4969264;28;20398;-76
2021/09/23 00:36:04;;;;;;;17.88;4.43;;;;;14.40;101161.00;;;;4970279;28;20078;-76
2021/09/23 00:38:33;;;;;;;19.95;4.57;;;;;14.30;101169.00;;;;4970342;28;20090;-75
2021/09/23 00:41:03;;;;;;;5.95;1.42;;;;;14.30;101181.00;;;;4970562;28;20047;-76
2021/09/23 00:43:33;;;;;;;15.63;4.28;;;;;14.50;101174.00;;;;4971464;28;20097;-75
2021/09/23 00:46:02;;;;;;;20.50;5.03;;;;;14.50;101185.00;;;;4969475;28;20061;-76
2021/09/23 00:48:32;;;;;;;30.67;5.15;;;;;14.50;101168.00;;;;4970869;28;20050;-75
2021/09/23 00:51:02;;;;;;;23.05;4.93;;;;;14.40;101161.00;;;;4969609;28;20050;-75
2021/09/23 00:53:32;;;;;;;15.77;4.20;;;;;14.30;101179.00;;;;4968971;28;20058;-76
2021/09/23 00:56:02;;;;;;;21.33;4.40;;;;;14.30;101169.00;;;;4969376;28;20157;-75
2021/09/23 00:58:37;;;;;;;9.75;2.78;;;;;14.40;101154.00;;;;4969437;28;20050;-75
2021/09/23 01:01:06;;;;;;;18.17;3.63;;;;;14.30;101160.00;;;;4969678;28;20049;-75
2021/09/23 01:03:37;;;;;;;14.93;3.47;;;;;14.30;101155.00;;;;4969176;28;20051;-76
2021/09/23 01:06:07;;;;;;;26.73;4.38;;;;;14.30;101153.00;;;;4969230;28;20054;-73
2021/09/23 01:08:40;;;;;;;20.98;4.90;;;;;14.30;101156.00;;;;4969756;28;20474;-75
2021/09/23 01:11:10;;;;;;;20.48;3.78;;;;;14.30;101156.00;;;;4969635;28;20046;-74
2021/09/23 01:13:40;;;;;;;24.70;4.47;;;;;14.20;101144.00;;;;4966559;28;20437;-74
2021/09/23 01:16:13;;;;;;;18.55;3.78;;;;;14.40;101132.00;;;;4968165;28;20069;-74
2021/09/23 01:19:03;;;;;;;16.27;4.50;;;;;14.40;101125.00;;;;4969689;28;20073;-74
2021/09/23 01:21:34;;;;;;;19.52;4.85;;;;;14.40;101144.00;;;;4971081;28;20042;-74
2021/09/23 01:24:07;;;;;;;20.85;3.70;;;;;14.30;101139.00;;;;4969223;28;20051;-74
2021/09/23 01:26:38;;;;;;;33.50;3.93;;;;;14.30;101147.00;;;;4969099;28;20530;-73
2021/09/23 01:29:28;;;;;;;16.95;4.28;;;;;14.30;101137.00;;;;4968979;28;20149;-74
2021/09/23 01:32:04;;;;;;;20.85;4.10;;;;;14.30;101146.00;;;;4969897;28;20073;-74
2021/09/23 01:34:35;;;;;;;27.20;4.30;;;;;14.30;101138.00;;;;4968835;28;20053;-74
2021/09/23 01:37:09;;;;;;;16.23;4.25;;;;;14.30;101147.00;;;;4968753;28;20449;-74
2021/09/23 01:39:46;;;;;;;22.02;4.93;;;;;14.20;101149.00;;;;4968869;28;20561;-74
2021/09/23 01:42:23;;;;;;;17.10;4.10;;;;;14.00;101145.00;;;;4968816;28;20109;-74
2021/09/23 01:44:55;;;;;;;17.58;4.00;;;;;14.10;101146.00;;;;4969015;28;20059;-74
2021/09/23 01:47:26;;;;;;;8.80;3.22;;;;;14.00;101145.00;;;;4968420;28;20043;-74
2021/09/23 01:49:58;;;;;;;23.23;4.10;;;;;14.10;101146.00;;;;4968330;28;20454;-73
2021/09/23 01:52:32;;;;;;;141.48;32.42;;;;;14.20;101136.00;;;;4968764;28;20073;-74
2021/09/23 01:55:12;;;;;;;31.92;19.02;;;;;14.10;101145.00;;;;4968848;28;20054;-74
2021/09/23 01:57:43;;;;;;;316.98;77.68;;;;;14.10;101145.00;;;;4968458;28;20121;-73
2021/09/23 02:00:14;;;;;;;17.00;3.92;;;;;14.10;101150.00;;;;4967824;28;20061;-74
2021/09/23 02:02:50;;;;;;;18.23;4.20;;;;;14.10;101139.00;;;;4968746;28;20053;-74
2021/09/23 02:05:31;;;;;;;21.45;8.07;;;;;14.10;101119.00;;;;4969535;28;20046;-73
2021/09/23 02:08:01;;;;;;;12.47;3.43;;;;;14.20;101149.00;;;;4968295;28;20070;-73
2021/09/23 02:10:30;;;;;;;20.27;4.53;;;;;14.20;101147.00;;;;4968305;28;20807;-74
2021/09/23 02:13:01;;;;;;;13.85;4.63;;;;;14.20;101148.00;;;;4952649;28;20058;-73
2021/09/23 02:15:31;;;;;;;12.07;4.22;;;;;14.00;101163.00;;;;4968427;28;20063;-74
2021/09/23 02:18:03;;;;;;;14.45;4.28;;;;;13.90;101139.00;;;;4968500;28;20074;-74
2021/09/23 02:20:33;;;;;;;17.17;4.13;;;;;13.80;101152.00;;;;4968164;28;20054;-74
2021/09/23 02:23:03;;;;;;;7.00;2.22;;;;;13.70;101145.00;;;;4967858;28;20494;-74
2021/09/23 02:25:38;;;;;;;15.48;7.95;;;;;13.70;101130.00;;;;4967873;28;20074;-74
2021/09/23 02:28:08;;;;;;;15.48;3.88;;;;;13.70;101134.00;;;;4969137;28;20046;-75
2021/09/23 02:30:38;;;;;;;14.05;3.88;;;;;13.80;101162.00;;;;4968416;28;20061;-74
2021/09/23 02:33:07;;;;;;;16.65;3.30;;;;;13.70;101157.00;;;;4967829;28;20141;-74
2021/09/23 02:35:37;;;;;;;16.35;3.33;;;;;13.60;101161.00;;;;4967593;28;20050;-74
2021/09/23 02:38:06;;;;;;;102.28;21.75;;;;;13.50;101133.00;;;;4967709;28;20465;-74
2021/09/23 02:40:36;;;;;;;22.80;4.07;;;;;13.70;101147.00;;;;4968532;28;20106;-74
2021/09/23 02:43:05;;;;;;;13.75;3.22;;;;;13.60;101142.00;;;;4968088;28;20058;-74
2021/09/23 02:45:35;;;;;;;16.77;3.75;;;;;13.50;101151.00;;;;4967073;28;20059;-74
2021/09/23 02:48:04;;;;;;;15.35;3.50;;;;;13.30;101156.00;;;;4966585;28;20051;-74
2021/09/23 02:50:34;;;;;;;12.35;4.15;;;;;13.20;101157.00;;;;4966788;28;20051;-74
2021/09/23 02:53:03;;;;;;;10.02;6.70;;;;;13.00;101142.00;;;;4967380;28;20133;-74
2021/09/23 02:55:33;;;;;;;14.95;2.83;;;;;13.10;101123.00;;;;4966856;28;20117;-74
2021/09/23 02:58:02;;;;;;;13.77;4.20;;;;;13.40;101144.00;;;;4967331;28;20534;-74
2021/09/23 03:00:32;;;;;;;16.05;4.05;;;;;13.50;101132.00;;;;4967219;28;20062;-74
2021/09/23 03:03:01;;;;;;;16.30;4.10;;;;;13.20;101132.00;;;;4967215;28;20043;-74
2021/09/23 03:05:31;;;;;;;21.88;3.60;;;;;13.20;101136.00;;;;4967595;28;20050;-74
2021/09/23 03:08:04;;;;;;;17.42;3.67;;;;;13.10;101144.00;;;;4968710;28;20038;-74
2021/09/23 03:10:33;;;;;;;16.27;4.65;;;;;12.90;101162.00;;;;4967122;28;20429;-74
2021/09/23 03:13:03;;;;;;;19.27;3.60;;;;;12.80;101166.00;;;;4967413;28;20521;-74
2021/09/23 03:15:33;;;;;;;23.27;3.60;;;;;12.60;101137.00;;;;4967245;28;20042;-74
2021/09/23 03:18:02;;;;;;;13.15;3.30;;;;;12.50;101166.00;;;;4966877;28;20169;-73
2021/09/23 03:20:32;;;;;;;27.48;4.07;;;;;12.40;101164.00;;;;4967457;28;20530;-73
2021/09/23 03:23:01;;;;;;;30.33;20.52;;;;;12.30;101144.00;;;;4967182;28;20114;-74
2021/09/23 03:25:31;;;;;;;14.10;4.63;;;;;12.20;101175.00;;;;4980982;28;20051;-74
2021/09/23 03:28:01;;;;;;;10.57;2.55;;;;;12.00;101137.00;;;;4968931;28;20664;-74
2021/09/23 03:30:30;;;;;;;11.55;3.60;;;;;11.90;101146.00;;;;4967915;28;20101;-75
2021/09/23 03:33:00;;;;;;;17.25;4.03;;;;;11.80;101154.00;;;;4968058;28;20047;-74
2021/09/23 03:35:30;;;;;;;15.50;3.45;;;;;11.70;101172.00;;;;4968077;28;20113;-74
2021/09/23 03:38:00;;;;;;;481.42;50.97;;;;;11.70;101171.00;;;;4966635;28;20043;-74
2021/09/23 03:40:29;;;;;;;17.88;3.63;;;;;11.60;101150.00;;;;4968026;28;20055;-74
2021/09/23 03:42:59;;;;;;;8.32;3.00;;;;;11.60;101155.00;;;;4967830;28;20501;-74
2021/09/23 03:45:29;;;;;;;10.50;3.53;;;;;11.50;101158.00;;;;4968094;28;20510;-74
2021/09/23 03:47:58;;;;;;;14.88;3.92;;;;;11.40;101164.00;;;;4966718;28;20445;-74
2021/09/23 03:50:28;;;;;;;17.33;3.72;;;;;11.40;101155.00;;;;4983590;28;20425;-74
2021/09/23 03:52:57;;;;;;;14.55;3.08;;;;;11.30;101165.00;;;;4965930;28;20050;-74
2021/09/23 03:55:27;;;;;;;18.08;3.88;;;;;11.40;101154.00;;;;4966422;28;20146;-73
2021/09/23 03:57:56;;;;;;;14.20;3.60;;;;;11.60;101127.00;;;;4967826;28;20039;-74
2021/09/23 04:00:26;;;;;;;17.42;3.97;;;;;11.80;101126.00;;;;4965922;28;20098;-74
2021/09/23 04:02:56;;;;;;;28.13;4.93;;;;;12.00;101129.00;;;;4982363;28;20101;-74
2021/09/23 04:05:26;;;;;;;17.05;3.92;;;;;12.00;101133.00;;;;4966005;28;20105;-74
2021/09/23 04:07:55;;;;;;;15.88;4.00;;;;;11.90;101123.00;;;;4982463;28;20078;-74
2021/09/23 04:10:26;;;;;;;18.17;4.93;;;;;11.90;101119.00;;;;4983022;28;20054;-74
2021/09/23 04:12:56;;;;;;;20.13;3.67;;;;;11.80;101142.00;;;;4982877;28;20089;-74
2021/09/23 04:15:25;;;;;;;15.52;3.85;;;;;11.70;101134.00;;;;4982358;28;20488;-74
2021/09/23 04:18:00;;;;;;;20.75;4.45;;;;;11.70;101130.00;;;;4982484;28;20058;-73
2021/09/23 04:20:31;;;;;;;16.85;3.97;;;;;11.50;101140.00;;;;4982698;28;20065;-74
2021/09/23 04:23:00;;;;;;;15.90;4.20;;;;;11.40;101138.00;;;;4966278;28;20058;-74
2021/09/23 04:25:30;;;;;;;21.63;16.25;;;;;11.30;101134.00;;;;4967640;28;20047;-74
2021/09/23 04:27:59;;;;;;;15.75;3.92;;;;;11.30;101113.00;;;;4965961;28;20079;-74
2021/09/23 04:30:29;;;;;;;20.58;4.32;;;;;11.20;101114.00;;;;4966034;28;20511;-74
2021/09/23 04:32:59;;;;;;;17.48;4.72;;;;;11.10;101110.00;;;;4966632;28;20057;-74
2021/09/23 04:35:29;;;;;;;16.53;4.50;;;;;11.10;101111.00;;;;4967042;28;20057;-74
2021/09/23 04:37:59;;;;;;;17.25;4.43;;;;;11.20;101108.00;;;;4965901;28;20294;-74
2021/09/23 04:40:28;;;;;;;21.15;4.50;;;;;11.20;101136.00;;;;4967039;28;20050;-73
2021/09/23 04:43:00;;;;;;;20.63;4.28;;;;;11.20;101123.00;;;;4965735;28;20097;-75
2021/09/23 04:45:30;;;;;;;17.90;5.00;;;;;11.10;101111.00;;;;4966756;28;20051;-74
2021/09/23 04:48:01;;;;;;;15.30;4.57;;;;;11.10;101131.00;;;;4966166;28;20061;-74
2021/09/23 04:50:31;;;;;;;16.73;4.45;;;;;11.10;101139.00;;;;4965911;28;20451;-75
2021/09/23 04:53:05;;;;;;;14.70;4.05;;;;;11.20;101113.00;;;;4965682;28;20078;-74
2021/09/23 04:55:35;;;;;;;498.48;167.77;;;;;11.20;101114.00;;;;4965910;28;20047;-74
2021/09/23 04:58:04;;;;;;;20.05;4.97;;;;;11.20;101105.00;;;;4966255;28;20046;-74
2021/09/23 05:00:34;;;;;;;12.68;4.57;;;;;11.20;101131.00;;;;4965648;28;20047;-74
2021/09/23 05:03:06;;;;;;;16.23;4.35;;;;;11.50;101125.00;;;;4965641;28;20069;-74
2021/09/23 05:05:36;;;;;;;12.85;4.22;;;;;11.60;101108.00;;;;4965432;28;20078;-75
2021/09/23 05:08:07;;;;;;;16.90;4.70;;;;;11.50;101095.00;;;;4965976;28;20050;-75
2021/09/23 05:10:37;;;;;;;15.75;4.80;;;;;11.40;101087.00;;;;4965146;28;20534;-75
2021/09/23 05:13:07;;;;;;;13.70;3.90;;;;;11.40;101085.00;;;;4968416;28;20062;-75
2021/09/23 05:15:39;;;;;;;14.10;4.25;;;;;11.50;101093.00;;;;4970268;28;20039;-75
2021/09/23 05:18:13;;;;;;;14.00;3.75;;;;;11.50;101094.00;;;;4970113;28;20047;-75
2021/09/23 05:20:42;;;;;;;10.02;3.40;;;;;11.50;101110.00;;;;4970821;28;20074;-74
2021/09/23 05:23:16;;;;;;;19.90;4.75;;;;;11.50;101092.00;;;;4971041;28;20121;-75
2021/09/23 05:25:46;;;;;;;16.90;4.82;;;;;11.50;101101.00;;;;4970168;28;20098;-74
2021/09/23 05:28:16;;;;;;;19.75;4.50;;;;;11.50;101083.00;;;;4969982;28;20051;-75
2021/09/23 05:30:45;;;;;;;14.98;4.60;;;;;11.50;101078.00;;;;4969982;28;20478;-74
2021/09/23 05:33:15;;;;;;;14.60;3.85;;;;;11.60;101103.00;;;;4970448;28;20042;-74
2021/09/23 05:35:45;;;;;;;16.17;4.85;;;;;11.60;101070.00;;;;4970516;28;20047;-74
2021/09/23 05:38:15;;;;;;;15.57;4.40;;;;;11.70;101096.00;;;;4970844;28;20126;-75
2021/09/23 05:40:44;;;;;;;10.52;3.95;;;;;11.80;101102.00;;;;4969984;28;20043;-74
2021/09/23 05:43:13;;;;;;;14.40;4.72;;;;;12.00;101107.00;;;;4969743;28;20097;-74
2021/09/23 05:45:43;;;;;;;14.82;4.20;;;;;12.00;101100.00;;;;4969589;28;20055;-74
2021/09/23 05:48:12;;;;;;;14.95;4.13;;;;;12.20;101084.00;;;;4970289;28;20105;-74
2021/09/23 05:50:42;;;;;;;14.85;4.55;;;;;12.50;101089.00;;;;4969999;28;20046;-74
2021/09/23 05:53:11;;;;;;;17.75;4.25;;;;;13.00;101085.00;;;;4969849;28;20051;-74
2021/09/23 05:55:41;;;;;;;9.50;3.63;;;;;13.30;101083.00;;;;4969358;28;20047;-75
2021/09/23 05:58:10;;;;;;;15.00;3.97;;;;;13.70;101095.00;;;;4970168;28;20050;-75
2021/09/23 06:00:40;;;;;;;16.55;4.45;;;;;13.70;101075.00;;;;4970099;28;20043;-75
2021/09/23 06:03:09;;;;;;;16.85;5.05;;;;;13.70;101091.00;;;;4970041;28;20133;-75
2021/09/23 06:05:39;;;;;;;13.20;4.82;;;;;13.80;101091.00;;;;4969874;28;20051;-75
2021/09/23 06:08:08;;;;;;;13.77;4.50;;;;;13.70;101107.00;;;;4970079;28;20050;-75
2021/09/23 06:10:38;;;;;;;14.73;3.90;;;;;13.60;101087.00;;;;4969762;28;20039;-75
2021/09/23 06:13:08;;;;;;;23.25;4.82;;;;;13.40;101088.00;;;;4968382;28;20054;-75
2021/09/23 06:15:38;;;;;;;15.82;4.50;;;;;13.60;101081.00;;;;4968254;28;20042;-75
2021/09/23 06:18:07;;;;;;;15.55;4.40;;;;;13.90;101065.00;;;;4969732;28;20054;-75
2021/09/23 06:20:37;;;;;;;10.48;3.92;;;;;13.70;101071.00;;;;4968851;28;20070;-75
2021/09/23 06:23:07;;;;;;;17.52;4.70;;;;;13.70;101077.00;;;;4969292;28;20053;-75
2021/09/23 06:25:38;;;;;;;22.63;4.78;;;;;13.60;101059.00;;;;4968611;28;20039;-75
2021/09/23 06:28:08;;;;;;;15.95;4.40;;;;;13.40;101065.00;;;;4969498;28;20121;-75
2021/09/23 06:30:38;;;;;;;15.13;4.63;;;;;13.40;101067.00;;;;4970272;28;20073;-75
2021/09/23 06:33:07;;;;;;;10.77;3.80;;;;;13.30;101062.00;;;;4969096;28;20074;-75
2021/09/23 06:35:37;;;;;;;9.63;3.90;;;;;13.40;101042.00;;;;4967669;28;20537;-74
2021/09/23 06:38:06;;;;;;;10.73;3.72;;;;;13.40;101054.00;;;;4967628;28;20058;-75
2021/09/23 06:40:38;;;;;;;16.92;4.43;;;;;13.40;101064.00;;;;4969263;28;20046;-75
2021/09/23 06:43:08;;;;;;;11.45;3.85;;;;;13.40;101052.00;;;;4967662;28;20134;-75
2021/09/23 06:45:38;;;;;;;11.73;3.58;;;;;13.40;101050.00;;;;4968756;28;20047;-75
2021/09/23 06:48:07;;;;;;;9.32;3.10;;;;;13.50;101057.00;;;;4969830;28;20054;-75
2021/09/23 06:50:37;;;;;;;9.73;3.35;;;;;13.70;101033.00;;;;4969269;28;20043;-74
2021/09/23 06:53:06;;;;;;;13.77;3.92;;;;;13.90;101037.00;;;;4969594;28;20150;-75
2021/09/23 06:55:35;;;;;;;11.25;3.80;;;;;13.80;101021.00;;;;4968562;28;20061;-75
2021/09/23 06:58:05;;;;;;;7.80;2.38;;;;;13.90;101017.00;;;;4968505;28;20043;-75
2021/09/23 07:00:52;;;;;;;18.17;4.80;;;;;13.80;101018.00;;;;4968930;28;20477;-75
2021/09/23 07:03:57;;;;;;;15.82;4.40;;;;;13.70;101030.00;;;;4966941;28;20065;-75
2021/09/23 07:06:49;;;;;;;12.70;4.25;;;;;13.70;101030.00;;;;4949089;28;20051;-74
2021/09/23 07:09:40;;;;;;;7.57;3.08;;;;;13.60;101041.00;;;;4967020;28;20617;-75
2021/09/23 07:12:18;;;;;;;15.07;4.75;;;;;13.50;101049.00;;;;4966818;28;20061;-75
2021/09/23 07:14:48;;;;;;;18.95;5.18;;;;;13.30;101048.00;;;;4966509;28;20057;-75
2021/09/23 07:17:18;;;;;;;18.05;4.93;;;;;13.30;101039.00;;;;4966640;28;20050;-75
2021/09/23 07:19:47;;;;;;;15.35;4.93;;;;;13.20;101039.00;;;;4968848;28;20035;-75
2021/09/23 07:22:17;;;;;;;19.05;4.53;;;;;13.10;101033.00;;;;4968548;28;20058;-75
2021/09/23 07:24:47;;;;;;;13.38;4.45;;;;;13.10;101046.00;;;;4968455;28;20058;-75
2021/09/23 07:27:17;;;;;;;20.67;5.32;;;;;13.00;101046.00;;;;4967905;28;20600;-75
2021/09/23 07:29:46;;;;;;;15.50;4.90;;;;;12.80;101036.00;;;;4968624;28;20074;-75
2021/09/23 07:32:16;;;;;;;18.17;4.93;;;;;12.70;101044.00;;;;4966106;28;20430;-75
2021/09/23 07:34:46;;;;;;;16.83;4.95;;;;;12.50;101041.00;;;;4966561;28;20055;-75
2021/09/23 07:37:16;;;;;;;10.85;3.58;;;;;12.40;101053.00;;;;4966622;28;20055;-75
2021/09/23 07:39:54;;;;;;;23.17;5.63;;;;;12.40;101033.00;;;;4968328;28;20039;-75
2021/09/23 07:42:23;;;;;;;15.55;4.53;;;;;12.30;101064.00;;;;4967322;28;20051;-75
2021/09/23 07:44:53;;;;;;;18.95;5.03;;;;;12.20;101066.00;;;;4968151;28;20061;-74
2021/09/23 07:47:22;;;;;;;21.35;4.68;;;;;11.90;101062.00;;;;4966825;28;20565;-74
2021/09/23 07:49:52;;;;;;;15.38;4.57;;;;;11.80;101065.00;;;;4966255;28;20058;-74
2021/09/23 07:52:21;;;;;;;13.60;4.47;;;;;11.80;101036.00;;;;4967595;28;20408;-74
2021/09/23 07:54:58;;;;;;;16.85;4.53;;;;;11.70;101035.00;;;;4966705;28;20055;-74
2021/09/23 07:57:27;;;;;;;13.82;4.82;;;;;11.50;101065.00;;;;4966323;28;20167;-74
2021/09/23 07:59:57;;;;;;;18.23;5.60;;;;;11.40;101068.00;;;;4966274;28;20053;-75
2021/09/23 08:02:27;;;;;;;13.65;4.57;;;;;11.30;101085.00;;;;4966469;28;20042;-74
2021/09/23 08:04:58;;;;;;;21.08;5.15;;;;;11.20;101072.00;;;;4966230;28;20153;-75
2021/09/23 08:07:28;;;;;;;15.32;4.97;;;;;11.20;101074.00;;;;4966426;28;20383;-75
2021/09/23 08:09:57;;;;;;;16.65;5.10;;;;;11.20;101069.00;;;;4966568;28;20138;-74
2021/09/23 08:12:28;;;;;;;17.73;5.38;;;;;11.10;101063.00;;;;4966622;28;20049;-74
2021/09/23 08:14:58;;;;;;;18.42;5.63;;;;;11.00;101060.00;;;;4966077;28;20105;-74
2021/09/23 08:17:46;;;;;;;16.52;5.07;;;;;11.00;101049.00;;;;4966415;28;20101;-75
2021/09/23 08:20:42;;;;;;;15.40;5.82;;;;;10.90;101052.00;;;;4965372;28;20098;-74
2021/09/23 08:23:12;;;;;;;17.98;5.85;;;;;10.90;101041.00;;;;4966244;28;20134;-71
2021/09/23 08:25:43;;;;;;;18.45;4.97;;;;;10.90;101052.00;;;;4965573;28;20050;-74
2021/09/23 08:28:13;;;;;;;18.43;5.80;;;;;10.80;101047.00;;;;4967852;28;20055;-74
2021/09/23 08:30:46;;;;;;;16.05;5.60;;;;;10.70;101075.00;;;;4965113;28;20066;-74
2021/09/23 08:33:16;;;;;;;16.95;5.32;;;;;10.60;101062.00;;;;4966006;28;20540;-74
2021/09/23 08:35:46;;;;;;;13.95;4.88;;;;;10.60;101042.00;;;;4966001;28;20106;-73
2021/09/23 08:38:20;;;;;;;19.08;5.30;;;;;10.60;101051.00;;;;4965359;28;20102;-74
2021/09/23 08:40:51;;;;;;;27.58;5.82;;;;;10.60;101049.00;;;;4966232;28;20051;-74
2021/09/23 08:43:21;;;;;;;16.77;5.20;;;;;10.60;101063.00;;;;4967775;28;20064;-74
2021/09/23 08:45:57;;;;;;;14.90;5.38;;;;;10.60;101049.00;;;;4965891;28;20145;-74
2021/09/23 08:48:34;;;;;;;18.95;6.35;;;;;10.60;101070.00;;;;4968623;28;20147;-74
2021/09/23 08:51:04;;;;;;;15.20;5.18;;;;;10.50;101073.00;;;;4970317;28;20054;-74
2021/09/23 08:53:34;;;;;;;16.98;5.30;;;;;10.50;101058.00;;;;4971887;28;20490;-74
2021/09/23 08:56:03;;;;;;;24.15;6.15;;;;;10.50;101069.00;;;;4969294;28;20067;-74
2021/09/23 08:58:33;;;;;;;14.70;5.00;;;;;10.40;101056.00;;;;4969357;28;20105;-74
2021/09/23 09:01:06;;;;;;;20.40;4.72;;;;;10.40;101082.00;;;;4969080;28;20051;-75
2021/09/23 09:04:02;;;;;;;14.38;5.20;;;;;10.40;101101.00;;;;4970337;28;20442;-74
2021/09/23 09:06:59;;;;;;;20.08;5.35;;;;;10.40;101075.00;;;;4951516;28;20589;-74
2021/09/23 09:09:49;;;;;;;14.70;5.10;;;;;10.40;101080.00;;;;4970566;28;20062;-74
2021/09/23 09:12:19;;;;;;;17.88;5.18;;;;;10.40;101089.00;;;;4970891;28;20049;-74
2021/09/23 09:14:49;;;;;;;16.85;5.40;;;;;10.40;101104.00;;;;4970440;28;20528;-75
2021/09/23 09:17:19;;;;;;;22.48;5.63;;;;;10.40;101080.00;;;;4969220;28;20434;-74
2021/09/23 09:20:02;;;;;;;17.25;4.65;;;;;10.40;101076.00;;;;4968538;28;20936;-74
2021/09/23 09:22:35;;;;;;;21.30;5.00;;;;;10.40;101092.00;;;;4970356;28;20121;-75
2021/09/23 09:25:12;;;;;;;19.42;5.22;;;;;10.40;101111.00;;;;4968992;28;20802;-74
2021/09/23 09:27:46;;;;;;;12.40;4.97;;;;;10.50;101108.00;;;;4969132;28;20050;-74
2021/09/23 09:30:23;;;;;;;15.68;5.05;;;;;10.50;101084.00;;;;4967568;28;20059;-74
2021/09/23 09:32:57;;;;;;;20.10;5.75;;;;;10.50;101116.00;;;;4969656;28;20507;-75
2021/09/23 09:35:36;;;;;;;19.08;5.32;;;;;10.40;101108.00;;;;4969544;28;20034;-74
2021/09/23 09:38:10;;;;;;;14.93;4.82;;;;;10.50;101111.00;;;;4968306;28;20053;-74
2021/09/23 09:40:42;;;;;;;22.67;5.13;;;;;10.60;101094.00;;;;4968068;28;20085;-74
2021/09/23 09:43:14;;;;;;;28.15;6.22;;;;;10.70;101086.00;;;;4968601;28;20058;-74
2021/09/23 09:45:45;;;;;;;24.85;5.28;;;;;10.80;101102.00;;;;4967295;28;20054;-75
2021/09/23 09:48:29;;;;;;;22.98;5.72;;;;;11.00;101119.00;;;;4967272;28;20584;-74
2021/09/23 09:51:03;;;;;;;17.77;5.00;;;;;11.00;101101.00;;;;4967747;28;20138;-74
2021/09/23 09:53:33;;;;;;;18.53;4.73;;;;;11.00;101106.00;;;;4967940;28;20145;-74
2021/09/23 09:56:19;;;;;;;15.32;4.80;;;;;11.00;101116.00;;;;4968172;28;20234;-74
2021/09/23 09:59:17;;;;;;;22.85;5.47;;;;;11.10;101130.00;;;;4967619;28;20051;-74
2021/09/23 10:01:56;;;;;;;20.17;4.22;;;;;11.10;101130.00;;;;4968653;28;20043;-74
2021/09/23 10:04:29;;;;;;;25.00;5.18;;;;;11.20;101132.00;;;;4969205;28;20584;-74
2021/09/23 10:07:03;;;;;;;14.25;4.63;;;;;11.30;101120.00;;;;4967464;28;20050;-73
2021/09/23 10:09:40;;;;;;;15.35;5.30;;;;;11.30;101125.00;;;;4967611;28;20050;-73
2021/09/23 10:12:10;;;;;;;14.93;4.57;;;;;11.40;101114.00;;;;4967652;28;20082;-75
2021/09/23 10:14:44;;;;;;;23.48;5.53;;;;;11.50;101113.00;;;;4968156;28;20050;-76
2021/09/23 10:17:14;;;;;;;18.00;5.25;;;;;11.60;101122.00;;;;4967838;28;20061;-75
2021/09/23 10:19:45;;;;;;;22.77;5.45;;;;;11.70;101138.00;;;;4968051;28;20046;-75
2021/09/23 10:22:15;;;;;;;29.42;5.22;;;;;12.10;101136.00;;;;4967522;28;20402;-76
2021/09/23 10:24:46;;;;;;;24.65;5.82;;;;;12.40;101135.00;;;;4968433;28;20047;-75
2021/09/23 10:30:06;;;;;;;16.58;5.45;;;;;12.70;101140.00;;;;4968603;28;20142;-76
2021/09/23 10:32:37;;;;;;;27.55;5.47;;;;;12.90;101133.00;;;;4967785;28;20047;-76
2021/09/23 10:35:07;;;;;;;;;;;;;13.00;101150.00;;;;4968218;28;20148;-76
2021/09/23 10:37:37;;;;;;;20.42;4.97;;;;;13.30;101149.00;;;;4967378;28;19926;-76
2021/09/23 10:40:09;;;;;;;32.20;5.50;;;;;13.60;101112.00;;;;4966993;28;20518;-75
2021/09/23 10:42:40;;;;;;;31.65;5.70;;;;;13.90;101130.00;;;;4967380;28;20050;-75
2021/09/23 10:45:10;;;;;;;39.25;6.15;;;;;14.40;101108.00;;;;4967331;28;20137;-76
2021/09/23 10:47:39;;;;;;;15.20;3.22;;;;;14.70;101100.00;;;;4969376;28;20661;-76
2021/09/23 10:50:09;;;;;;;22.70;4.65;;;;;15.20;101096.00;;;;4967932;28;20134;-76
2021/09/23 10:52:40;;;;;;;26.85;6.85;;;;;15.80;101074.00;;;;4967433;28;20051;-75
2021/09/23 10:55:10;;;;;;;19.42;4.47;;;;;16.30;101100.00;;;;4967958;28;20082;-76
2021/09/23 10:57:41;;;;;;;23.10;4.75;;;;;16.60;101105.00;;;;4968533;28;20490;-76
2021/09/23 11:00:12;;;;;;;21.50;4.90;;;;;16.90;101090.00;;;;4967197;28;20046;-76
2021/09/23 11:02:44;;;;;;;27.88;4.78;;;;;20.20;100964.00;;;;4967243;28;20108;-76
2021/09/23 11:05:15;;;;;;;10.07;3.35;;;;;23.00;100919.00;;;;4966961;28;20101;-76
2021/09/23 11:07:45;;;;;;;19.10;4.30;;;;;21.50;101101.00;;;;4968692;28;20488;-76
2021/09/23 11:10:23;;;;;;;20.60;4.53;;;;;19.20;101088.00;;;;4966446;28;20141;-76
2021/09/23 11:12:56;;;;;;;21.33;3.70;;;;;23.30;100925.00;;;;4967682;28;20055;-76
2021/09/23 11:15:31;;;;;;;20.35;3.67;;;;;24.40;100937.00;;;;4968677;28;20554;-77
2021/09/23 11:18:01;;;;;;;7.10;4.72;;;;;24.80;100957.00;;;;4967150;28;20065;-76
2021/09/23 11:20:32;;;;;;;8.20;5.18;;;;;25.10;100996.00;;;;4967236;28;20047;-73
2021/09/23 11:23:08;;;;;;;9.10;3.20;;;;;23.40;101011.00;;;;4966869;28;20094;-74
2021/09/23 11:25:45;;;;;;;33.22;18.27;;;;;24.90;100970.00;;;;4966678;28;20054;-73
2021/09/23 11:28:22;;;;;;;19.10;17.13;;;;;25.60;100960.00;;;;4966457;28;20457;-76
2021/09/23 11:30:53;;;;;;;17.80;6.88;;;;;26.50;100958.00;;;;4966631;28;20141;-76
2021/09/23 11:33:23;;;;;;;;;;;;;27.90;100961.00;;;;4967065;28;20510;-74
2021/09/23 11:35:53;;;;;;;17.63;6.88;;;;;25.90;100929.00;;;;4967446;28;19969;-76
2021/09/23 11:38:26;;;;;;;7.57;3.38;;;;;25.80;100935.00;;;;4967134;28;20050;-75
2021/09/23 11:40:59;;;;;;;5.82;2.95;;;;;25.90;100950.00;;;;4966276;28;20565;-73
2021/09/23 11:43:31;;;;;;;7.32;4.03;;;;;25.80;100979.00;;;;4966131;28;20055;-74
2021/09/23 11:46:05;;;;;;;9.50;3.17;;;;;25.50;100968.00;;;;4967135;28;20058;-73
2021/09/23 11:48:35;;;;;;;14.13;3.47;;;;;25.00;101000.00;;;;4966745;28;20081;-77
2021/09/23 11:51:15;;;;;;;15.80;7.78;;;;;25.60;100960.00;;;;4966546;28;20524;-76
2021/09/23 11:53:55;;;;;;;13.85;3.42;;;;;26.20;100960.00;;;;4966572;28;20070;-76
2021/09/23 11:56:25;;;;;;;12.55;2.70;;;;;26.30;100946.00;;;;4966508;28;20138;-77
2021/09/23 11:58:56;;;;;;;15.27;3.47;;;;;26.20;100930.00;;;;4968372;28;20051;-76
2021/09/23 12:01:27;;;;;;;11.68;3.55;;;;;25.90;100958.00;;;;4966286;28;20090;-76
2021/09/23 12:03:56;;;;;;;11.05;2.55;;;;;25.10;100935.00;;;;4966108;28;20051;-75
2021/09/23 12:06:30;;;;;;;12.02;6.65;;;;;25.90;100955.00;;;;4966152;28;20137;-75
2021/09/23 12:09:09;;;;;;;7.88;2.30;;;;;25.10;100930.00;;;;4966978;28;20477;-75
2021/09/23 12:11:39;;;;;;;10.35;2.97;;;;;25.10;100977.00;;;;4965607;28;20125;-76
2021/09/23 12:14:17;;;;;;;2.50;1.65;;;;;25.50;100920.00;;;;4966630;28;20050;-75
2021/09/23 12:16:48;;;;;;;3.70;1.33;;;;;24.70;100936.00;;;;4965926;28;20051;-76
2021/09/23 12:19:27;;;;;;;7.35;2.55;;;;;24.80;100964.00;;;;4966559;28;20142;-76
2021/09/23 12:22:03;;;;;;;9.43;2.40;;;;;23.40;101040.00;;;;4969041;28;20073;-76
2021/09/23 12:24:40;;;;;;;8.00;2.70;;;;;24.20;101013.00;;;;4955875;28;20102;-75
2021/09/23 12:27:25;;;;;;;9.05;2.90;;;;;24.20;100995.00;;;;4969760;28;20055;-76
2021/09/23 12:29:57;;;;;;;10.00;2.90;;;;;24.00;100975.00;;;;4969531;28;20097;-76